createdAt,value
2023-04-16T00:02:00.346Z,1
2023-04-16T00:14:00.197Z,1
2023-04-16T00:26:00.325Z,1
2023-04-16T00:38:00.320Z,1
2023-04-16T00:50:00.305Z,1
2023-04-16T01:02:00.359Z,1
2023-04-16T01:14:00.218Z,1
2023-04-16T01:26:00.351Z,1
2023-04-16T01:38:00.334Z,1
2023-04-16T01:50:00.288Z,1
2023-04-16T02:02:00.566Z,1
2023-04-16T02:14:00.402Z,1
2023-04-16T02:26:00.351Z,1
2023-04-16T02:38:00.301Z,1
2023-04-16T02:50:00.485Z,1
2023-04-16T03:02:00.459Z,1
2023-04-16T03:14:00.404Z,1
2023-04-16T03:26:00.416Z,1
2023-04-16T03:38:00.390Z,1
2023-04-16T03:50:00.542Z,1
2023-04-16T04:02:00.615Z,1
2023-04-16T04:14:00.455Z,1
2023-04-16T04:26:00.461Z,1
2023-04-16T04:38:00.934Z,1
2023-04-16T04:50:00.547Z,3
2023-04-16T05:02:00.533Z,13
2023-04-16T05:14:00.473Z,33
2023-04-16T05:26:00.598Z,54
2023-04-16T05:38:00.586Z,68
2023-04-16T05:50:00.524Z,81
2023-04-16T06:02:00.748Z,81
2023-04-16T06:14:00.630Z,87
2023-04-16T06:26:00.609Z,86
2023-04-16T06:38:00.557Z,87
2023-04-16T06:50:00.761Z,91
2023-04-16T07:02:00.737Z,92
2023-04-16T07:14:00.637Z,91
2023-04-16T07:26:00.565Z,91
2023-04-16T07:38:00.752Z,92
2023-04-16T07:50:00.693Z,92
2023-04-16T08:02:00.748Z,92
2023-04-16T08:14:00.810Z,92
2023-04-16T08:26:00.780Z,93
2023-04-16T08:38:02.344Z,94
2023-04-16T08:50:00.703Z,95
2023-04-16T09:02:00.969Z,95
2023-04-16T09:14:01.312Z,95
2023-04-16T09:26:00.775Z,95
2023-04-16T09:38:00.774Z,95
2023-04-16T09:50:00.925Z,95
2023-04-16T10:02:15.064Z,96
2023-04-16T10:14:00.937Z,96
2023-04-16T10:26:00.795Z,96
2023-04-16T10:38:01.014Z,96
2023-04-16T10:50:00.937Z,96
2023-04-16T11:02:00.889Z,97
2023-04-16T11:14:00.854Z,97
2023-04-16T11:26:00.939Z,97
2023-04-16T11:38:00.914Z,97
2023-04-16T11:50:00.867Z,97
2023-04-16T12:02:01.084Z,97
2023-04-16T12:14:00.996Z,96
2023-04-16T12:26:00.958Z,96
2023-04-16T12:38:00.917Z,96
2023-04-16T12:50:01.097Z,96
2023-04-16T13:02:01.418Z,96
2023-04-16T13:14:01.024Z,96
2023-04-16T13:26:00.959Z,95
2023-04-16T13:38:01.187Z,95
2023-04-16T13:50:01.112Z,95
2023-04-16T14:02:01.119Z,96
2023-04-16T14:14:01.180Z,96
2023-04-16T14:26:01.193Z,96
2023-04-16T14:38:01.105Z,96
2023-04-16T14:50:01.080Z,96
2023-04-16T15:02:01.302Z,94
2023-04-16T15:14:01.180Z,94
2023-04-16T15:26:01.123Z,94
2023-04-16T15:38:01.088Z,93
2023-04-16T15:50:01.238Z,93
2023-04-16T16:02:01.419Z,92
2023-04-16T16:14:01.139Z,91
2023-04-16T16:26:01.324Z,90
2023-04-16T16:38:01.274Z,90
2023-04-16T16:50:02.850Z,91
2023-04-16T17:02:01.206Z,92
2023-04-16T17:14:01.366Z,91
2023-04-16T17:26:01.314Z,88
2023-04-16T17:38:01.308Z,84
2023-04-16T17:50:01.268Z,87
2023-04-16T18:02:01.543Z,85
2023-04-16T18:14:01.330Z,85
2023-04-16T18:26:01.325Z,80
2023-04-16T18:38:01.268Z,75
2023-04-16T18:50:01.443Z,70
2023-04-16T19:02:01.411Z,57
2023-04-16T19:14:01.402Z,38
2023-04-16T19:26:01.345Z,23
2023-04-16T19:38:01.584Z,7
2023-04-16T19:50:01.416Z,2
2023-04-16T20:02:01.464Z,1
2023-04-16T20:14:01.525Z,1
2023-04-16T20:26:01.525Z,1
2023-04-16T20:38:01.493Z,1
2023-04-16T20:50:01.497Z,1
2023-04-16T21:02:01.699Z,1
2023-04-16T21:14:01.593Z,1
2023-04-16T21:26:01.571Z,1
2023-04-16T21:38:01.555Z,1
2023-04-16T21:50:01.680Z,1
2023-04-16T22:02:01.738Z,1
2023-04-16T22:14:05.494Z,1
2023-04-16T22:26:01.575Z,1
2023-04-16T22:38:01.681Z,1
2023-04-16T22:50:01.661Z,1
2023-04-16T23:02:01.646Z,1
2023-04-16T23:14:01.557Z,1
2023-04-16T23:26:01.685Z,1
2023-04-16T23:38:01.725Z,1
2023-04-16T23:50:01.592Z,1
